sensor_id;sensor_type;location;lat;lon;timestamp;P1;durP1;ratioP1;P2;durP2;ratioP2
51907;SDS011;39320;53.214;6.556;2023-05-10T00:02:09;5.85;;;5.25;;
51907;SDS011;39320;53.214;6.556;2023-05-10T00:04:35;6.50;;;5.68;;
51907;SDS011;39320;53.214;6.556;2023-05-10T00:07:01;6.88;;;5.80;;
51907;SDS011;39320;53.214;6.556;2023-05-10T00:09:27;6.15;;;5.57;;
51907;SDS011;39320;53.214;6.556;2023-05-10T00:11:52;5.70;;;5.10;;
51907;SDS011;39320;53.214;6.556;2023-05-10T00:14:18;6.72;;;6.03;;
51907;SDS011;39320;53.214;6.556;2023-05-10T00:16:44;5.97;;;5.25;;
51907;SDS011;39320;53.214;6.556;2023-05-10T00:19:10;6.32;;;5.72;;
51907;SDS011;39320;53.214;6.556;2023-05-10T00:21:35;5.90;;;5.30;;
51907;SDS011;39320;53.214;6.556;2023-05-10T00:24:01;5.95;;;5.35;;
51907;SDS011;39320;53.214;6.556;2023-05-10T00:26:27;5.70;;;5.20;;
51907;SDS011;39320;53.214;6.556;2023-05-10T00:28:53;5.97;;;4.97;;
51907;SDS011;39320;53.214;6.556;2023-05-10T00:31:18;5.18;;;4.68;;
51907;SDS011;39320;53.214;6.556;2023-05-10T00:33:44;5.35;;;4.85;;
51907;SDS011;39320;53.214;6.556;2023-05-10T00:36:10;5.68;;;4.70;;
51907;SDS011;39320;53.214;6.556;2023-05-10T00:38:36;5.20;;;4.03;;
51907;SDS011;39320;53.214;6.556;2023-05-10T00:41:01;4.75;;;4.35;;
51907;SDS011;39320;53.214;6.556;2023-05-10T00:43:27;4.55;;;4.15;;
51907;SDS011;39320;53.214;6.556;2023-05-10T00:45:53;4.85;;;4.45;;
51907;SDS011;39320;53.214;6.556;2023-05-10T00:48:19;4.95;;;4.38;;
51907;SDS011;39320;53.214;6.556;2023-05-10T00:50:46;4.65;;;4.15;;
51907;SDS011;39320;53.214;6.556;2023-05-10T00:53:12;5.07;;;4.40;;
51907;SDS011;39320;53.214;6.556;2023-05-10T00:55:38;3.90;;;3.45;;
51907;SDS011;39320;53.214;6.556;2023-05-10T00:58:04;4.13;;;3.72;;
51907;SDS011;39320;53.214;6.556;2023-05-10T01:00:30;3.78;;;3.40;;
51907;SDS011;39320;53.214;6.556;2023-05-10T01:02:57;3.55;;;3.25;;
51907;SDS011;39320;53.214;6.556;2023-05-10T01:05:23;3.97;;;3.53;;
51907;SDS011;39320;53.214;6.556;2023-05-10T01:07:49;4.13;;;3.67;;
51907;SDS011;39320;53.214;6.556;2023-05-10T01:10:15;3.90;;;3.50;;
51907;SDS011;39320;53.214;6.556;2023-05-10T01:12:42;4.68;;;4.13;;
51907;SDS011;39320;53.214;6.556;2023-05-10T01:15:10;4.22;;;3.83;;
51907;SDS011;39320;53.214;6.556;2023-05-10T01:17:37;4.28;;;3.85;;
51907;SDS011;39320;53.214;6.556;2023-05-10T01:20:05;4.28;;;3.85;;
51907;SDS011;39320;53.214;6.556;2023-05-10T01:22:42;5.05;;;4.55;;
51907;SDS011;39320;53.214;6.556;2023-05-10T01:31:01;4.90;;;4.40;;
51907;SDS011;39320;53.214;6.556;2023-05-10T01:33:35;5.32;;;4.82;;
51907;SDS011;39320;53.214;6.556;2023-05-10T01:41:36;5.72;;;5.05;;
51907;SDS011;39320;53.214;6.556;2023-05-10T01:49:26;4.72;;;4.25;;
51907;SDS011;39320;53.214;6.556;2023-05-10T01:51:59;5.15;;;4.65;;
51907;SDS011;39320;53.214;6.556;2023-05-10T01:54:31;5.05;;;4.55;;
51907;SDS011;39320;53.214;6.556;2023-05-10T01:57:00;4.95;;;4.53;;
51907;SDS011;39320;53.214;6.556;2023-05-10T01:59:30;4.95;;;4.45;;
51907;SDS011;39320;53.214;6.556;2023-05-10T02:02:06;5.28;;;4.78;;
51907;SDS011;39320;53.214;6.556;2023-05-10T02:04:36;5.28;;;4.78;;
51907;SDS011;39320;53.214;6.556;2023-05-10T02:07:05;5.72;;;4.50;;
51907;SDS011;39320;53.214;6.556;2023-05-10T02:09:32;5.47;;;4.32;;
51907;SDS011;39320;53.214;6.556;2023-05-10T02:11:59;5.07;;;4.57;;
51907;SDS011;39320;53.214;6.556;2023-05-10T02:14:28;4.82;;;4.43;;
51907;SDS011;39320;53.214;6.556;2023-05-10T02:16:57;4.50;;;4.10;;
51907;SDS011;39320;53.214;6.556;2023-05-10T02:19:25;5.32;;;4.82;;
51907;SDS011;39320;53.214;6.556;2023-05-10T02:21:52;5.43;;;4.93;;
51907;SDS011;39320;53.214;6.556;2023-05-10T02:24:20;4.68;;;4.28;;
51907;SDS011;39320;53.214;6.556;2023-05-10T02:26:47;5.25;;;4.75;;
51907;SDS011;39320;53.214;6.556;2023-05-10T02:29:14;4.28;;;3.88;;
51907;SDS011;39320;53.214;6.556;2023-05-10T02:31:41;4.80;;;4.30;;
51907;SDS011;39320;53.214;6.556;2023-05-10T02:34:08;4.53;;;4.13;;
51907;SDS011;39320;53.214;6.556;2023-05-10T02:36:37;5.07;;;4.55;;
51907;SDS011;39320;53.214;6.556;2023-05-10T02:39:03;4.60;;;4.20;;
51907;SDS011;39320;53.214;6.556;2023-05-10T02:41:34;4.97;;;4.47;;
51907;SDS011;39320;53.214;6.556;2023-05-10T02:44:01;5.72;;;5.20;;
51907;SDS011;39320;53.214;6.556;2023-05-10T02:46:29;5.50;;;5.00;;
51907;SDS011;39320;53.214;6.556;2023-05-10T02:48:55;5.78;;;5.18;;
51907;SDS011;39320;53.214;6.556;2023-05-10T02:51:21;6.00;;;5.40;;
51907;SDS011;39320;53.214;6.556;2023-05-10T02:53:53;6.82;;;5.75;;
51907;SDS011;39320;53.214;6.556;2023-05-10T02:56:23;6.35;;;5.47;;
51907;SDS011;39320;53.214;6.556;2023-05-10T02:58:51;6.88;;;6.18;;
51907;SDS011;39320;53.214;6.556;2023-05-10T03:01:17;8.38;;;7.40;;
51907;SDS011;39320;53.214;6.556;2023-05-10T03:03:43;8.32;;;7.53;;
51907;SDS011;39320;53.214;6.556;2023-05-10T03:06:08;9.15;;;7.30;;
51907;SDS011;39320;53.214;6.556;2023-05-10T03:08:34;7.93;;;7.13;;
51907;SDS011;39320;53.214;6.556;2023-05-10T03:11:16;7.85;;;7.05;;
51907;SDS011;39320;53.214;6.556;2023-05-10T03:16:42;9.15;;;7.78;;
51907;SDS011;39320;53.214;6.556;2023-05-10T03:19:19;7.55;;;6.78;;
51907;SDS011;39320;53.214;6.556;2023-05-10T03:21:52;7.70;;;6.30;;
51907;SDS011;39320;53.214;6.556;2023-05-10T03:24:20;7.50;;;6.60;;
51907;SDS011;39320;53.214;6.556;2023-05-10T03:26:47;7.15;;;6.50;;
51907;SDS011;39320;53.214;6.556;2023-05-10T03:29:15;7.95;;;7.15;;
51907;SDS011;39320;53.214;6.556;2023-05-10T03:31:42;7.47;;;6.70;;
51907;SDS011;39320;53.214;6.556;2023-05-10T03:34:08;6.63;;;6.03;;
51907;SDS011;39320;53.214;6.556;2023-05-10T03:36:34;7.47;;;5.88;;
51907;SDS011;39320;53.214;6.556;2023-05-10T03:39:00;6.82;;;5.95;;
51907;SDS011;39320;53.214;6.556;2023-05-10T03:41:25;8.20;;;7.32;;
51907;SDS011;39320;53.214;6.556;2023-05-10T03:43:51;8.02;;;7.22;;
51907;SDS011;39320;53.214;6.556;2023-05-10T03:46:17;7.80;;;7.00;;
51907;SDS011;39320;53.214;6.556;2023-05-10T03:48:43;8.82;;;7.93;;
51907;SDS011;39320;53.214;6.556;2023-05-10T03:51:08;8.93;;;7.28;;
51907;SDS011;39320;53.214;6.556;2023-05-10T03:53:34;8.95;;;8.07;;
51907;SDS011;39320;53.214;6.556;2023-05-10T03:56:00;9.57;;;7.97;;
51907;SDS011;39320;53.214;6.556;2023-05-10T03:58:26;9.65;;;8.63;;
51907;SDS011;39320;53.214;6.556;2023-05-10T04:00:52;10.35;;;8.32;;
51907;SDS011;39320;53.214;6.556;2023-05-10T04:03:17;10.02;;;9.02;;
51907;SDS011;39320;53.214;6.556;2023-05-10T04:05:43;10.13;;;9.13;;
51907;SDS011;39320;53.214;6.556;2023-05-10T04:08:09;9.77;;;8.77;;
51907;SDS011;39320;53.214;6.556;2023-05-10T04:10:35;11.23;;;8.75;;
51907;SDS011;39320;53.214;6.556;2023-05-10T04:13:01;9.27;;;8.35;;
51907;SDS011;39320;53.214;6.556;2023-05-10T04:15:26;9.90;;;8.23;;
51907;SDS011;39320;53.214;6.556;2023-05-10T04:17:52;6.20;;;5.55;;
51907;SDS011;39320;53.214;6.556;2023-05-10T04:20:18;6.45;;;5.25;;
51907;SDS011;39320;53.214;6.556;2023-05-10T04:22:44;5.57;;;4.72;;
51907;SDS011;39320;53.214;6.556;2023-05-10T04:25:10;4.30;;;3.90;;
51907;SDS011;39320;53.214;6.556;2023-05-10T04:27:36;4.55;;;4.15;;
51907;SDS011;39320;53.214;6.556;2023-05-10T04:30:02;4.13;;;3.72;;
51907;SDS011;39320;53.214;6.556;2023-05-10T04:32:28;5.35;;;4.15;;
51907;SDS011;39320;53.214;6.556;2023-05-10T04:34:54;4.13;;;3.67;;
51907;SDS011;39320;53.214;6.556;2023-05-10T04:37:20;3.97;;;3.58;;
51907;SDS011;39320;53.214;6.556;2023-05-10T04:39:46;3.13;;;2.83;;
51907;SDS011;39320;53.214;6.556;2023-05-10T04:42:12;4.07;;;3.30;;
51907;SDS011;39320;53.214;6.556;2023-05-10T04:44:39;3.80;;;2.50;;
51907;SDS011;39320;53.214;6.556;2023-05-10T04:47:05;2.92;;;2.42;;
51907;SDS011;39320;53.214;6.556;2023-05-10T04:49:31;2.85;;;2.60;;
51907;SDS011;39320;53.214;6.556;2023-05-10T04:51:57;2.80;;;2.60;;
51907;SDS011;39320;53.214;6.556;2023-05-10T04:54:23;2.97;;;2.67;;
51907;SDS011;39320;53.214;6.556;2023-05-10T04:56:49;3.05;;;2.65;;
51907;SDS011;39320;53.214;6.556;2023-05-10T04:59:15;3.10;;;2.15;;
51907;SDS011;39320;53.214;6.556;2023-05-10T05:01:40;2.78;;;2.10;;
51907;SDS011;39320;53.214;6.556;2023-05-10T05:04:06;2.80;;;2.55;;
51907;SDS011;39320;53.214;6.556;2023-05-10T05:06:32;3.20;;;2.80;;
51907;SDS011;39320;53.214;6.556;2023-05-10T05:08:57;4.15;;;3.00;;
51907;SDS011;39320;53.214;6.556;2023-05-10T05:11:23;3.63;;;2.78;;
51907;SDS011;39320;53.214;6.556;2023-05-10T05:13:50;3.45;;;2.90;;
51907;SDS011;39320;53.214;6.556;2023-05-10T05:16:16;2.78;;;2.58;;
51907;SDS011;39320;53.214;6.556;2023-05-10T05:18:42;2.63;;;2.40;;
51907;SDS011;39320;53.214;6.556;2023-05-10T05:21:17;3.03;;;2.70;;
51907;SDS011;39320;53.214;6.556;2023-05-10T05:23:44;3.00;;;2.70;;
51907;SDS011;39320;53.214;6.556;2023-05-10T05:26:10;2.88;;;2.60;;
51907;SDS011;39320;53.214;6.556;2023-05-10T05:28:36;4.13;;;2.67;;
51907;SDS011;39320;53.214;6.556;2023-05-10T05:31:06;3.88;;;3.47;;
51907;SDS011;39320;53.214;6.556;2023-05-10T05:33:35;3.08;;;2.78;;
51907;SDS011;39320;53.214;6.556;2023-05-10T05:36:01;4.60;;;3.20;;
51907;SDS011;39320;53.214;6.556;2023-05-10T05:38:28;3.40;;;3.10;;
51907;SDS011;39320;53.214;6.556;2023-05-10T05:40:54;3.83;;;3.45;;
51907;SDS011;39320;53.214;6.556;2023-05-10T05:43:20;2.85;;;2.65;;
51907;SDS011;39320;53.214;6.556;2023-05-10T05:45:45;3.33;;;2.90;;
51907;SDS011;39320;53.214;6.556;2023-05-10T05:48:11;3.63;;;2.78;;
51907;SDS011;39320;53.214;6.556;2023-05-10T05:50:37;4.03;;;3.63;;
51907;SDS011;39320;53.214;6.556;2023-05-10T05:53:03;3.35;;;2.85;;
51907;SDS011;39320;53.214;6.556;2023-05-10T05:55:29;3.63;;;2.70;;
51907;SDS011;39320;53.214;6.556;2023-05-10T05:57:56;3.10;;;2.80;;
51907;SDS011;39320;53.214;6.556;2023-05-10T06:00:23;3.47;;;3.17;;
51907;SDS011;39320;53.214;6.556;2023-05-10T06:02:49;2.95;;;2.55;;
51907;SDS011;39320;53.214;6.556;2023-05-10T06:05:14;3.50;;;3.00;;
51907;SDS011;39320;53.214;6.556;2023-05-10T06:07:40;2.33;;;2.13;;
51907;SDS011;39320;53.214;6.556;2023-05-10T06:10:09;2.00;;;1.50;;
51907;SDS011;39320;53.214;6.556;2023-05-10T06:12:35;1.30;;;1.20;;
51907;SDS011;39320;53.214;6.556;2023-05-10T06:15:01;2.55;;;1.67;;
51907;SDS011;39320;53.214;6.556;2023-05-10T06:17:27;1.10;;;1.00;;
51907;SDS011;39320;53.214;6.556;2023-05-10T06:19:53;1.10;;;1.00;;
51907;SDS011;39320;53.214;6.556;2023-05-10T06:22:19;1.23;;;0.80;;
51907;SDS011;39320;53.214;6.556;2023-05-10T06:24:46;0.73;;;0.68;;
51907;SDS011;39320;53.214;6.556;2023-05-10T06:27:12;0.95;;;0.85;;
51907;SDS011;39320;53.214;6.556;2023-05-10T06:29:38;0.80;;;0.70;;
51907;SDS011;39320;53.214;6.556;2023-05-10T06:32:04;1.35;;;1.00;;
51907;SDS011;39320;53.214;6.556;2023-05-10T06:34:30;1.65;;;1.35;;
51907;SDS011;39320;53.214;6.556;2023-05-10T06:36:56;1.55;;;1.45;;
51907;SDS011;39320;53.214;6.556;2023-05-10T06:39:22;2.90;;;2.47;;
51907;SDS011;39320;53.214;6.556;2023-05-10T06:41:48;4.20;;;3.80;;
51907;SDS011;39320;53.214;6.556;2023-05-10T06:44:14;4.40;;;4.00;;
51907;SDS011;39320;53.214;6.556;2023-05-10T06:46:40;4.40;;;4.00;;
51907;SDS011;39320;53.214;6.556;2023-05-10T06:49:06;4.10;;;3.70;;
51907;SDS011;39320;53.214;6.556;2023-05-10T06:51:32;4.55;;;4.15;;
51907;SDS011;39320;53.214;6.556;2023-05-10T06:53:58;4.30;;;3.90;;
51907;SDS011;39320;53.214;6.556;2023-05-10T06:56:24;4.70;;;4.10;;
51907;SDS011;39320;53.214;6.556;2023-05-10T06:58:50;4.25;;;3.80;;
51907;SDS011;39320;53.214;6.556;2023-05-10T07:01:15;4.30;;;3.90;;
51907;SDS011;39320;53.214;6.556;2023-05-10T07:03:41;4.50;;;3.90;;
51907;SDS011;39320;53.214;6.556;2023-05-10T07:06:07;3.97;;;3.58;;
51907;SDS011;39320;53.214;6.556;2023-05-10T07:08:33;4.72;;;3.25;;
51907;SDS011;39320;53.214;6.556;2023-05-10T07:11:03;2.90;;;2.58;;
51907;SDS011;39320;53.214;6.556;2023-05-10T07:13:30;3.10;;;2.80;;
51907;SDS011;39320;53.214;6.556;2023-05-10T07:15:57;2.70;;;2.50;;
51907;SDS011;39320;53.214;6.556;2023-05-10T07:18:23;3.53;;;2.50;;
51907;SDS011;39320;53.214;6.556;2023-05-10T07:20:49;3.40;;;2.95;;
51907;SDS011;39320;53.214;6.556;2023-05-10T07:23:15;2.53;;;2.30;;
51907;SDS011;39320;53.214;6.556;2023-05-10T07:25:44;2.63;;;2.30;;
51907;SDS011;39320;53.214;6.556;2023-05-10T07:28:14;2.65;;;2.22;;
51907;SDS011;39320;53.214;6.556;2023-05-10T07:30:41;2.30;;;2.10;;
51907;SDS011;39320;53.214;6.556;2023-05-10T07:33:08;2.55;;;2.15;;
51907;SDS011;39320;53.214;6.556;2023-05-10T07:35:35;2.25;;;2.03;;
51907;SDS011;39320;53.214;6.556;2023-05-10T07:38:01;2.10;;;1.90;;
51907;SDS011;39320;53.214;6.556;2023-05-10T07:40:27;2.17;;;1.92;;
51907;SDS011;39320;53.214;6.556;2023-05-10T07:42:53;1.67;;;1.55;;
51907;SDS011;39320;53.214;6.556;2023-05-10T07:45:19;1.60;;;1.48;;
51907;SDS011;39320;53.214;6.556;2023-05-10T07:47:46;1.50;;;1.40;;
51907;SDS011;39320;53.214;6.556;2023-05-10T07:50:11;1.50;;;1.40;;
51907;SDS011;39320;53.214;6.556;2023-05-10T07:52:37;1.45;;;1.35;;
51907;SDS011;39320;53.214;6.556;2023-05-10T07:55:03;1.20;;;1.10;;
51907;SDS011;39320;53.214;6.556;2023-05-10T07:57:29;1.67;;;1.52;;
51907;SDS011;39320;53.214;6.556;2023-05-10T07:59:55;1.33;;;1.23;;
51907;SDS011;39320;53.214;6.556;2023-05-10T08:02:21;1.75;;;1.38;;
51907;SDS011;39320;53.214;6.556;2023-05-10T08:04:47;2.17;;;1.67;;
51907;SDS011;39320;53.214;6.556;2023-05-10T08:07:12;2.28;;;2.08;;
51907;SDS011;39320;53.214;6.556;2023-05-10T08:09:38;2.13;;;1.90;;
51907;SDS011;39320;53.214;6.556;2023-05-10T08:12:04;3.05;;;2.20;;
51907;SDS011;39320;53.214;6.556;2023-05-10T08:14:30;2.67;;;2.10;;
51907;SDS011;39320;53.214;6.556;2023-05-10T08:16:56;2.53;;;2.30;;
51907;SDS011;39320;53.214;6.556;2023-05-10T08:19:22;2.72;;;2.10;;
51907;SDS011;39320;53.214;6.556;2023-05-10T08:21:48;4.05;;;2.20;;
51907;SDS011;39320;53.214;6.556;2023-05-10T08:24:14;3.03;;;2.55;;
51907;SDS011;39320;53.214;6.556;2023-05-10T08:26:40;3.08;;;2.17;;
51907;SDS011;39320;53.214;6.556;2023-05-10T08:29:06;2.50;;;2.30;;
51907;SDS011;39320;53.214;6.556;2023-05-10T08:31:32;2.50;;;2.30;;
51907;SDS011;39320;53.214;6.556;2023-05-10T08:33:57;2.95;;;2.63;;
51907;SDS011;39320;53.214;6.556;2023-05-10T08:36:25;2.60;;;2.40;;
51907;SDS011;39320;53.214;6.556;2023-05-10T08:38:51;3.25;;;2.95;;
51907;SDS011;39320;53.214;6.556;2023-05-10T08:41:19;3.65;;;2.70;;
51907;SDS011;39320;53.214;6.556;2023-05-10T08:43:46;3.33;;;2.90;;
51907;SDS011;39320;53.214;6.556;2023-05-10T08:46:16;2.60;;;2.40;;
51907;SDS011;39320;53.214;6.556;2023-05-10T08:48:46;2.30;;;2.10;;
51907;SDS011;39320;53.214;6.556;2023-05-10T08:51:13;3.67;;;2.30;;
51907;SDS011;39320;53.214;6.556;2023-05-10T08:53:42;3.47;;;2.33;;
51907;SDS011;39320;53.214;6.556;2023-05-10T08:56:09;2.45;;;2.15;;
51907;SDS011;39320;53.214;6.556;2023-05-10T08:58:35;2.65;;;1.98;;
51907;SDS011;39320;53.214;6.556;2023-05-10T09:01:01;2.45;;;2.22;;
51907;SDS011;39320;53.214;6.556;2023-05-10T09:03:28;2.97;;;2.10;;
51907;SDS011;39320;53.214;6.556;2023-05-10T09:05:54;2.53;;;2.20;;
51907;SDS011;39320;53.214;6.556;2023-05-10T09:08:23;3.10;;;2.08;;
51907;SDS011;39320;53.214;6.556;2023-05-10T09:10:56;2.90;;;2.60;;
51907;SDS011;39320;53.214;6.556;2023-05-10T09:13:22;3.15;;;2.50;;
51907;SDS011;39320;53.214;6.556;2023-05-10T09:15:51;2.85;;;2.50;;
51907;SDS011;39320;53.214;6.556;2023-05-10T09:18:18;3.00;;;2.58;;
51907;SDS011;39320;53.214;6.556;2023-05-10T09:20:43;3.40;;;2.58;;
51907;SDS011;39320;53.214;6.556;2023-05-10T09:23:09;3.53;;;3.17;;
51907;SDS011;39320;53.214;6.556;2023-05-10T09:25:35;3.58;;;2.88;;
51907;SDS011;39320;53.214;6.556;2023-05-10T09:28:05;3.35;;;2.58;;
51907;SDS011;39320;53.214;6.556;2023-05-10T09:30:32;2.88;;;2.60;;
51907;SDS011;39320;53.214;6.556;2023-05-10T09:32:58;3.40;;;2.83;;
51907;SDS011;39320;53.214;6.556;2023-05-10T09:35:25;2.65;;;2.22;;
51907;SDS011;39320;53.214;6.556;2023-05-10T09:37:54;3.10;;;2.50;;
51907;SDS011;39320;53.214;6.556;2023-05-10T09:40:22;3.95;;;3.38;;
51907;SDS011;39320;53.214;6.556;2023-05-10T09:45:22;3.47;;;3.17;;
51907;SDS011;39320;53.214;6.556;2023-05-10T09:47:49;3.53;;;3.22;;
51907;SDS011;39320;53.214;6.556;2023-05-10T09:50:15;3.92;;;3.38;;
51907;SDS011;39320;53.214;6.556;2023-05-10T09:52:48;3.90;;;2.80;;
51907;SDS011;39320;53.214;6.556;2023-05-10T09:55:22;3.03;;;2.47;;
51907;SDS011;39320;53.214;6.556;2023-05-10T09:57:50;4.28;;;2.55;;
51907;SDS011;39320;53.214;6.556;2023-05-10T10:00:24;2.77;;;2.50;;
51907;SDS011;39320;53.214;6.556;2023-05-10T10:02:57;2.97;;;2.50;;
51907;SDS011;39320;53.214;6.556;2023-05-10T10:05:27;4.05;;;2.90;;
51907;SDS011;39320;53.214;6.556;2023-05-10T10:08:02;3.90;;;3.13;;
51907;SDS011;39320;53.214;6.556;2023-05-10T10:10:29;4.55;;;2.65;;
51907;SDS011;39320;53.214;6.556;2023-05-10T10:12:57;3.80;;;2.97;;
51907;SDS011;39320;53.214;6.556;2023-05-10T10:15:23;4.03;;;3.13;;
51907;SDS011;39320;53.214;6.556;2023-05-10T10:17:50;4.22;;;3.08;;
51907;SDS011;39320;53.214;6.556;2023-05-10T10:20:17;3.03;;;2.45;;
51907;SDS011;39320;53.214;6.556;2023-05-10T10:22:43;3.25;;;2.40;;
51907;SDS011;39320;53.214;6.556;2023-05-10T10:25:13;3.13;;;2.05;;
51907;SDS011;39320;53.214;6.556;2023-05-10T10:30:35;2.53;;;2.28;;
51907;SDS011;39320;53.214;6.556;2023-05-10T10:36:00;3.85;;;2.95;;
51907;SDS011;39320;53.214;6.556;2023-05-10T10:41:31;3.58;;;3.10;;
51907;SDS011;39320;53.214;6.556;2023-05-10T10:50:22;3.65;;;3.25;;
51907;SDS011;39320;53.214;6.556;2023-05-10T10:57:18;4.80;;;3.80;;
51907;SDS011;39320;53.214;6.556;2023-05-10T10:59:46;4.35;;;3.40;;
51907;SDS011;39320;53.214;6.556;2023-05-10T11:04:59;4.55;;;3.95;;
51907;SDS011;39320;53.214;6.556;2023-05-10T11:07:25;5.30;;;4.60;;
51907;SDS011;39320;53.214;6.556;2023-05-10T11:09:51;5.30;;;4.80;;
51907;SDS011;39320;53.214;6.556;2023-05-10T11:12:17;4.80;;;4.28;;
51907;SDS011;39320;53.214;6.556;2023-05-10T11:14:43;6.63;;;4.78;;
51907;SDS011;39320;53.214;6.556;2023-05-10T11:17:22;5.93;;;4.55;;
51907;SDS011;39320;53.214;6.556;2023-05-10T11:20:08;4.63;;;4.05;;
51907;SDS011;39320;53.214;6.556;2023-05-10T11:22:50;5.50;;;4.53;;
51907;SDS011;39320;53.214;6.556;2023-05-10T11:25:17;6.28;;;4.78;;
51907;SDS011;39320;53.214;6.556;2023-05-10T11:27:43;7.40;;;4.90;;
51907;SDS011;39320;53.214;6.556;2023-05-10T11:30:10;6.85;;;5.30;;
51907;SDS011;39320;53.214;6.556;2023-05-10T11:32:39;5.50;;;4.72;;
51907;SDS011;39320;53.214;6.556;2023-05-10T11:35:09;6.05;;;4.85;;
51907;SDS011;39320;53.214;6.556;2023-05-10T11:37:36;6.82;;;5.53;;
51907;SDS011;39320;53.214;6.556;2023-05-10T11:40:07;6.07;;;5.35;;
51907;SDS011;39320;53.214;6.556;2023-05-10T11:42:37;7.03;;;5.47;;
51907;SDS011;39320;53.214;6.556;2023-05-10T11:45:03;7.85;;;6.30;;
51907;SDS011;39320;53.214;6.556;2023-05-10T11:47:30;5.18;;;4.60;;
51907;SDS011;39320;53.214;6.556;2023-05-10T11:49:56;7.70;;;5.72;;
51907;SDS011;39320;53.214;6.556;2023-05-10T11:52:22;6.28;;;4.90;;
51907;SDS011;39320;53.214;6.556;2023-05-10T11:54:52;7.20;;;5.28;;
51907;SDS011;39320;53.214;6.556;2023-05-10T11:57:19;6.70;;;5.57;;
51907;SDS011;39320;53.214;6.556;2023-05-10T11:59:46;7.75;;;5.70;;
51907;SDS011;39320;53.214;6.556;2023-05-10T12:02:13;6.97;;;5.43;;
51907;SDS011;39320;53.214;6.556;2023-05-10T12:04:45;7.18;;;5.22;;
51907;SDS011;39320;53.214;6.556;2023-05-10T12:07:11;6.60;;;5.47;;
51907;SDS011;39320;53.214;6.556;2023-05-10T12:10:06;5.70;;;4.85;;
51907;SDS011;39320;53.214;6.556;2023-05-10T12:12:42;6.78;;;4.85;;
51907;SDS011;39320;53.214;6.556;2023-05-10T12:15:19;7.32;;;4.93;;
51907;SDS011;39320;53.214;6.556;2023-05-10T12:17:47;8.13;;;5.93;;
51907;SDS011;39320;53.214;6.556;2023-05-10T12:20:14;7.78;;;5.75;;
51907;SDS011;39320;53.214;6.556;2023-05-10T12:22:48;8.13;;;5.55;;
51907;SDS011;39320;53.214;6.556;2023-05-10T12:25:19;8.10;;;5.75;;
51907;SDS011;39320;53.214;6.556;2023-05-10T12:27:53;7.03;;;5.43;;
51907;SDS011;39320;53.214;6.556;2023-05-10T12:32:47;8.85;;;6.07;;
51907;SDS011;39320;53.214;6.556;2023-05-10T12:35:14;8.65;;;6.25;;
51907;SDS011;39320;53.214;6.556;2023-05-10T12:37:41;8.35;;;6.85;;
51907;SDS011;39320;53.214;6.556;2023-05-10T12:40:08;7.85;;;6.13;;
51907;SDS011;39320;53.214;6.556;2023-05-10T12:42:36;8.30;;;6.75;;
51907;SDS011;39320;53.214;6.556;2023-05-10T12:45:03;8.55;;;6.30;;
51907;SDS011;39320;53.214;6.556;2023-05-10T12:47:30;9.25;;;6.43;;
51907;SDS011;39320;53.214;6.556;2023-05-10T12:49:56;9.95;;;6.93;;
51907;SDS011;39320;53.214;6.556;2023-05-10T12:52:22;8.30;;;5.72;;
51907;SDS011;39320;53.214;6.556;2023-05-10T12:54:49;10.43;;;6.13;;
51907;SDS011;39320;53.214;6.556;2023-05-10T12:57:15;8.80;;;6.65;;
51907;SDS011;39320;53.214;6.556;2023-05-10T12:59:40;6.78;;;5.63;;
51907;SDS011;39320;53.214;6.556;2023-05-10T13:02:06;9.20;;;6.53;;
51907;SDS011;39320;53.214;6.556;2023-05-10T13:04:32;7.28;;;6.20;;
51907;SDS011;39320;53.214;6.556;2023-05-10T13:06:58;7.63;;;6.82;;
51907;SDS011;39320;53.214;6.556;2023-05-10T13:09:24;7.13;;;6.43;;
51907;SDS011;39320;53.214;6.556;2023-05-10T13:11:51;8.65;;;5.93;;
51907;SDS011;39320;53.214;6.556;2023-05-10T13:14:19;6.80;;;5.60;;
51907;SDS011;39320;53.214;6.556;2023-05-10T13:16:45;6.78;;;6.05;;
51907;SDS011;39320;53.214;6.556;2023-05-10T13:19:15;6.35;;;5.30;;
51907;SDS011;39320;53.214;6.556;2023-05-10T13:21:41;6.57;;;5.63;;
51907;SDS011;39320;53.214;6.556;2023-05-10T13:24:07;6.57;;;5.13;;
51907;SDS011;39320;53.214;6.556;2023-05-10T13:26:33;5.93;;;5.28;;
51907;SDS011;39320;53.214;6.556;2023-05-10T13:28:59;7.05;;;5.30;;
51907;SDS011;39320;53.214;6.556;2023-05-10T13:31:25;7.60;;;5.72;;
51907;SDS011;39320;53.214;6.556;2023-05-10T13:33:51;7.97;;;6.03;;
51907;SDS011;39320;53.214;6.556;2023-05-10T13:36:17;8.43;;;6.22;;
51907;SDS011;39320;53.214;6.556;2023-05-10T13:38:42;7.97;;;5.00;;
51907;SDS011;39320;53.214;6.556;2023-05-10T13:41:08;6.43;;;5.60;;
51907;SDS011;39320;53.214;6.556;2023-05-10T13:43:34;7.22;;;5.68;;
51907;SDS011;39320;53.214;6.556;2023-05-10T13:46:01;7.97;;;5.50;;
51907;SDS011;39320;53.214;6.556;2023-05-10T13:48:27;6.28;;;5.20;;
51907;SDS011;39320;53.214;6.556;2023-05-10T13:50:53;7.85;;;5.57;;
51907;SDS011;39320;53.214;6.556;2023-05-10T13:53:19;7.13;;;5.70;;
51907;SDS011;39320;53.214;6.556;2023-05-10T13:55:45;5.45;;;4.95;;
51907;SDS011;39320;53.214;6.556;2023-05-10T13:58:11;6.43;;;4.53;;
51907;SDS011;39320;53.214;6.556;2023-05-10T14:00:37;6.82;;;5.55;;
51907;SDS011;39320;53.214;6.556;2023-05-10T14:03:03;6.32;;;5.18;;
51907;SDS011;39320;53.214;6.556;2023-05-10T14:05:30;5.97;;;5.38;;
51907;SDS011;39320;53.214;6.556;2023-05-10T14:07:55;7.93;;;6.45;;
51907;SDS011;39320;53.214;6.556;2023-05-10T14:10:22;6.25;;;5.35;;
51907;SDS011;39320;53.214;6.556;2023-05-10T14:12:47;6.10;;;5.00;;
51907;SDS011;39320;53.214;6.556;2023-05-10T14:15:14;7.07;;;5.90;;
51907;SDS011;39320;53.214;6.556;2023-05-10T14:17:40;7.28;;;6.10;;
51907;SDS011;39320;53.214;6.556;2023-05-10T14:20:06;6.72;;;5.30;;
51907;SDS011;39320;53.214;6.556;2023-05-10T14:22:32;8.82;;;5.93;;
51907;SDS011;39320;53.214;6.556;2023-05-10T14:24:58;8.02;;;5.97;;
51907;SDS011;39320;53.214;6.556;2023-05-10T14:27:24;7.85;;;5.88;;
51907;SDS011;39320;53.214;6.556;2023-05-10T14:29:50;7.20;;;5.95;;
51907;SDS011;39320;53.214;6.556;2023-05-10T14:32:16;9.27;;;6.07;;
51907;SDS011;39320;53.214;6.556;2023-05-10T14:34:41;6.95;;;5.53;;
51907;SDS011;39320;53.214;6.556;2023-05-10T14:37:09;9.15;;;6.68;;
51907;SDS011;39320;53.214;6.556;2023-05-10T14:39:36;7.80;;;6.72;;
51907;SDS011;39320;53.214;6.556;2023-05-10T14:42:02;6.78;;;6.05;;
51907;SDS011;39320;53.214;6.556;2023-05-10T14:44:29;6.78;;;5.28;;
51907;SDS011;39320;53.214;6.556;2023-05-10T14:46:55;6.80;;;6.03;;
51907;SDS011;39320;53.214;6.556;2023-05-10T14:49:21;7.57;;;5.88;;
51907;SDS011;39320;53.214;6.556;2023-05-10T14:51:49;6.38;;;5.78;;
51907;SDS011;39320;53.214;6.556;2023-05-10T14:54:15;8.25;;;6.13;;
51907;SDS011;39320;53.214;6.556;2023-05-10T14:56:44;7.35;;;6.05;;
51907;SDS011;39320;53.214;6.556;2023-05-10T14:59:10;7.10;;;5.82;;
51907;SDS011;39320;53.214;6.556;2023-05-10T15:01:36;6.15;;;5.55;;
51907;SDS011;39320;53.214;6.556;2023-05-10T15:04:03;7.07;;;5.70;;
51907;SDS011;39320;53.214;6.556;2023-05-10T15:06:32;7.93;;;6.32;;
51907;SDS011;39320;53.214;6.556;2023-05-10T15:08:59;6.60;;;5.93;;
51907;SDS011;39320;53.214;6.556;2023-05-10T15:11:26;7.05;;;5.72;;
51907;SDS011;39320;53.214;6.556;2023-05-10T15:13:53;8.10;;;6.32;;
51907;SDS011;39320;53.214;6.556;2023-05-10T15:16:18;6.72;;;6.03;;
51907;SDS011;39320;53.214;6.556;2023-05-10T15:18:44;9.63;;;6.45;;
51907;SDS011;39320;53.214;6.556;2023-05-10T15:21:11;9.23;;;6.38;;
51907;SDS011;39320;53.214;6.556;2023-05-10T15:23:37;8.98;;;7.43;;
51907;SDS011;39320;53.214;6.556;2023-05-10T15:26:03;8.10;;;6.82;;
51907;SDS011;39320;53.214;6.556;2023-05-10T15:28:29;9.65;;;7.03;;
51907;SDS011;39320;53.214;6.556;2023-05-10T15:30:55;7.60;;;6.22;;
51907;SDS011;39320;53.214;6.556;2023-05-10T15:33:21;11.00;;;7.38;;
51907;SDS011;39320;53.214;6.556;2023-05-10T15:35:48;7.35;;;6.43;;